Terminal Aerodrome Forecast
Issued by NWS

Home | Current Version | Previous Version | Text Only | Print | Product List | Glossary On
Versions: 1 2 3 4 5 6 7 8 9 10 11 12 13 14 15 16 17 18 19 20 21
000
FTUS43 KMPX 301737
TAFRNH
TAF
KRNH 301737Z 3018/0118 04006KT P6SM SCT050
     FM302300 04005KT P6SM BKN050
     FM010700 04003KT 6SM BR BKN025 OVC040
     FM011000 06002KT 3SM BR SCT007 OVC015
     FM011400 06005KT P6SM BKN015 OVC040=

USA.gov is the U.S. government's official web portal to all federal, state and local government web resources and services.